sensor_id;sensor_type;location;lat;lon;timestamp;temperature;humidity
1351;DHT22;669;50.206;9.998;2022-09-09T00:01:27;12.60;61.90
1351;DHT22;669;50.206;9.998;2022-09-09T00:04:02;12.60;61.60
1351;DHT22;669;50.206;9.998;2022-09-09T00:06:34;12.50;61.80
1351;DHT22;669;50.206;9.998;2022-09-09T00:09:10;12.50;62.60
1351;DHT22;669;50.206;9.998;2022-09-09T00:11:43;12.60;62.30
1351;DHT22;669;50.206;9.998;2022-09-09T00:14:20;12.50;61.70
1351;DHT22;669;50.206;9.998;2022-09-09T00:16:53;12.60;61.80
1351;DHT22;669;50.206;9.998;2022-09-09T00:19:26;12.60;61.70
1351;DHT22;669;50.206;9.998;2022-09-09T00:22:07;12.60;61.80
1351;DHT22;669;50.206;9.998;2022-09-09T00:24:43;12.60;61.90
1351;DHT22;669;50.206;9.998;2022-09-09T00:27:19;12.60;62.60
1351;DHT22;669;50.206;9.998;2022-09-09T00:29:55;12.60;62.00
1351;DHT22;669;50.206;9.998;2022-09-09T00:32:29;12.50;60.50
1351;DHT22;669;50.206;9.998;2022-09-09T00:35:02;12.50;61.70
1351;DHT22;669;50.206;9.998;2022-09-09T00:37:32;12.50;61.80
1351;DHT22;669;50.206;9.998;2022-09-09T00:40:11;12.50;62.30
1351;DHT22;669;50.206;9.998;2022-09-09T00:42:44;12.50;62.60
1351;DHT22;669;50.206;9.998;2022-09-09T00:45:25;12.50;63.50
1351;DHT22;669;50.206;9.998;2022-09-09T00:48:03;12.50;63.30
1351;DHT22;669;50.206;9.998;2022-09-09T00:50:45;12.50;61.70
1351;DHT22;669;50.206;9.998;2022-09-09T00:53:28;12.50;62.00
1351;DHT22;669;50.206;9.998;2022-09-09T00:56:06;12.50;62.90
1351;DHT22;669;50.206;9.998;2022-09-09T00:58:37;12.60;62.00
1351;DHT22;669;50.206;9.998;2022-09-09T01:01:09;12.60;61.80
1351;DHT22;669;50.206;9.998;2022-09-09T01:03:45;12.50;62.40
1351;DHT22;669;50.206;9.998;2022-09-09T01:06:21;12.50;62.40
1351;DHT22;669;50.206;9.998;2022-09-09T01:09:13;12.50;63.40
1351;DHT22;669;50.206;9.998;2022-09-09T01:11:51;12.50;63.60
1351;DHT22;669;50.206;9.998;2022-09-09T01:14:32;12.50;62.90
1351;DHT22;669;50.206;9.998;2022-09-09T01:17:09;12.40;60.80
1351;DHT22;669;50.206;9.998;2022-09-09T01:19:55;12.30;62.40
1351;DHT22;669;50.206;9.998;2022-09-09T01:22:33;12.30;62.80
1351;DHT22;669;50.206;9.998;2022-09-09T01:25:22;12.30;63.10
1351;DHT22;669;50.206;9.998;2022-09-09T01:27:56;12.40;63.70
1351;DHT22;669;50.206;9.998;2022-09-09T01:30:25;12.40;63.40
1351;DHT22;669;50.206;9.998;2022-09-09T01:32:56;12.40;65.00
1351;DHT22;669;50.206;9.998;2022-09-09T01:35:35;12.50;64.40
1351;DHT22;669;50.206;9.998;2022-09-09T01:38:04;12.50;63.50
1351;DHT22;669;50.206;9.998;2022-09-09T01:40:33;12.50;64.70
1351;DHT22;669;50.206;9.998;2022-09-09T01:43:02;12.50;64.80
1351;DHT22;669;50.206;9.998;2022-09-09T01:45:31;12.50;65.00
1351;DHT22;669;50.206;9.998;2022-09-09T01:48:00;12.50;64.60
1351;DHT22;669;50.206;9.998;2022-09-09T01:50:29;12.50;64.40
1351;DHT22;669;50.206;9.998;2022-09-09T01:52:59;12.50;64.10
1351;DHT22;669;50.206;9.998;2022-09-09T01:55:30;12.50;64.00
1351;DHT22;669;50.206;9.998;2022-09-09T01:58:13;12.50;63.50
1351;DHT22;669;50.206;9.998;2022-09-09T02:00:48;12.50;63.70
1351;DHT22;669;50.206;9.998;2022-09-09T02:03:22;12.50;64.80
1351;DHT22;669;50.206;9.998;2022-09-09T02:05:59;12.50;64.30
1351;DHT22;669;50.206;9.998;2022-09-09T02:08:35;12.50;64.30
1351;DHT22;669;50.206;9.998;2022-09-09T02:11:11;12.40;65.10
1351;DHT22;669;50.206;9.998;2022-09-09T02:13:44;12.40;64.70
1351;DHT22;669;50.206;9.998;2022-09-09T02:16:15;12.40;64.70
1351;DHT22;669;50.206;9.998;2022-09-09T02:18:49;12.40;64.70
1351;DHT22;669;50.206;9.998;2022-09-09T02:21:19;12.40;65.20
1351;DHT22;669;50.206;9.998;2022-09-09T02:23:47;12.40;65.30
1351;DHT22;669;50.206;9.998;2022-09-09T02:26:19;12.40;65.80
1351;DHT22;669;50.206;9.998;2022-09-09T02:28:55;12.50;67.00
1351;DHT22;669;50.206;9.998;2022-09-09T02:31:25;12.60;66.30
1351;DHT22;669;50.206;9.998;2022-09-09T02:33:56;12.60;66.20
1351;DHT22;669;50.206;9.998;2022-09-09T02:36:27;12.60;67.00
1351;DHT22;669;50.206;9.998;2022-09-09T02:38:57;12.70;67.60
1351;DHT22;669;50.206;9.998;2022-09-09T02:41:29;12.70;68.80
1351;DHT22;669;50.206;9.998;2022-09-09T02:43:59;12.80;69.10
1351;DHT22;669;50.206;9.998;2022-09-09T02:49:21;12.90;69.30
1351;DHT22;669;50.206;9.998;2022-09-09T02:51:56;12.90;69.70
1351;DHT22;669;50.206;9.998;2022-09-09T02:54:30;12.90;68.20
1351;DHT22;669;50.206;9.998;2022-09-09T02:57:02;13.00;68.50
1351;DHT22;669;50.206;9.998;2022-09-09T02:59:33;13.00;69.20
1351;DHT22;669;50.206;9.998;2022-09-09T03:02:01;13.00;70.20
1351;DHT22;669;50.206;9.998;2022-09-09T03:04:29;13.00;69.60
1351;DHT22;669;50.206;9.998;2022-09-09T03:06:58;13.10;70.70
1351;DHT22;669;50.206;9.998;2022-09-09T03:09:26;13.10;70.50
1351;DHT22;669;50.206;9.998;2022-09-09T03:11:54;13.20;71.00
1351;DHT22;669;50.206;9.998;2022-09-09T03:14:23;13.20;69.10
1351;DHT22;669;50.206;9.998;2022-09-09T03:16:53;13.20;67.70
1351;DHT22;669;50.206;9.998;2022-09-09T03:19:23;13.20;69.80
1351;DHT22;669;50.206;9.998;2022-09-09T03:21:51;13.20;69.20
1351;DHT22;669;50.206;9.998;2022-09-09T03:24:19;13.20;69.10
1351;DHT22;669;50.206;9.998;2022-09-09T03:26:47;13.20;69.30
1351;DHT22;669;50.206;9.998;2022-09-09T03:29:14;13.20;68.30
1351;DHT22;669;50.206;9.998;2022-09-09T03:31:44;13.20;67.80
1351;DHT22;669;50.206;9.998;2022-09-09T03:34:13;13.20;70.10
1351;DHT22;669;50.206;9.998;2022-09-09T03:36:41;13.20;70.80
1351;DHT22;669;50.206;9.998;2022-09-09T03:39:09;13.20;69.70
1351;DHT22;669;50.206;9.998;2022-09-09T03:41:37;13.10;71.80
1351;DHT22;669;50.206;9.998;2022-09-09T03:44:05;13.20;69.60
1351;DHT22;669;50.206;9.998;2022-09-09T03:46:33;13.10;70.40
1351;DHT22;669;50.206;9.998;2022-09-09T03:49:01;13.10;70.10
1351;DHT22;669;50.206;9.998;2022-09-09T03:51:30;13.10;69.60
1351;DHT22;669;50.206;9.998;2022-09-09T03:53:58;13.10;69.90
1351;DHT22;669;50.206;9.998;2022-09-09T03:56:26;13.10;71.00
1351;DHT22;669;50.206;9.998;2022-09-09T03:58:54;13.00;68.20
1351;DHT22;669;50.206;9.998;2022-09-09T04:01:22;13.00;68.90
1351;DHT22;669;50.206;9.998;2022-09-09T04:03:50;12.90;69.70
1351;DHT22;669;50.206;9.998;2022-09-09T04:06:19;12.90;70.50
1351;DHT22;669;50.206;9.998;2022-09-09T04:08:49;12.90;70.00
1351;DHT22;669;50.206;9.998;2022-09-09T04:11:19;12.90;70.60
1351;DHT22;669;50.206;9.998;2022-09-09T04:13:47;12.80;71.30
1351;DHT22;669;50.206;9.998;2022-09-09T04:16:15;12.90;70.80
1351;DHT22;669;50.206;9.998;2022-09-09T04:18:43;12.80;71.10
1351;DHT22;669;50.206;9.998;2022-09-09T04:21:11;12.80;71.60
1351;DHT22;669;50.206;9.998;2022-09-09T04:23:39;12.80;70.00
1351;DHT22;669;50.206;9.998;2022-09-09T04:26:09;12.80;70.50
1351;DHT22;669;50.206;9.998;2022-09-09T04:28:37;12.80;71.00
1351;DHT22;669;50.206;9.998;2022-09-09T04:31:06;12.80;71.70
1351;DHT22;669;50.206;9.998;2022-09-09T04:33:35;12.90;72.00
1351;DHT22;669;50.206;9.998;2022-09-09T04:36:06;12.90;72.00
1351;DHT22;669;50.206;9.998;2022-09-09T04:38:35;13.00;72.10
1351;DHT22;669;50.206;9.998;2022-09-09T04:41:03;13.00;72.20
1351;DHT22;669;50.206;9.998;2022-09-09T04:43:32;13.10;71.80
1351;DHT22;669;50.206;9.998;2022-09-09T04:46:01;13.10;71.80
1351;DHT22;669;50.206;9.998;2022-09-09T04:48:29;13.20;72.10
1351;DHT22;669;50.206;9.998;2022-09-09T04:50:59;13.10;70.30
1351;DHT22;669;50.206;9.998;2022-09-09T04:53:28;13.10;71.40
1351;DHT22;669;50.206;9.998;2022-09-09T04:56:01;13.10;71.40
1351;DHT22;669;50.206;9.998;2022-09-09T04:58:31;13.10;72.00
1351;DHT22;669;50.206;9.998;2022-09-09T05:01:09;13.10;69.80
1351;DHT22;669;50.206;9.998;2022-09-09T05:03:37;13.00;69.50
1351;DHT22;669;50.206;9.998;2022-09-09T05:06:06;13.00;69.80
1351;DHT22;669;50.206;9.998;2022-09-09T05:08:35;13.00;72.20
1351;DHT22;669;50.206;9.998;2022-09-09T05:11:03;13.10;72.20
1351;DHT22;669;50.206;9.998;2022-09-09T05:13:33;13.10;72.10
1351;DHT22;669;50.206;9.998;2022-09-09T05:16:06;13.10;70.40
1351;DHT22;669;50.206;9.998;2022-09-09T05:18:38;13.20;70.60
1351;DHT22;669;50.206;9.998;2022-09-09T05:21:06;13.20;69.80
1351;DHT22;669;50.206;9.998;2022-09-09T05:23:34;13.10;70.20
1351;DHT22;669;50.206;9.998;2022-09-09T05:26:03;13.10;70.50
1351;DHT22;669;50.206;9.998;2022-09-09T05:28:34;13.10;72.30
1351;DHT22;669;50.206;9.998;2022-09-09T05:31:04;13.10;72.20
1351;DHT22;669;50.206;9.998;2022-09-09T05:33:36;13.20;72.30
1351;DHT22;669;50.206;9.998;2022-09-09T05:36:08;13.20;71.40
1351;DHT22;669;50.206;9.998;2022-09-09T05:38:37;13.30;70.90
1351;DHT22;669;50.206;9.998;2022-09-09T05:41:06;13.30;69.70
1351;DHT22;669;50.206;9.998;2022-09-09T05:43:37;13.20;70.70
1351;DHT22;669;50.206;9.998;2022-09-09T05:46:06;13.40;71.50
1351;DHT22;669;50.206;9.998;2022-09-09T05:48:36;13.40;70.90
1351;DHT22;669;50.206;9.998;2022-09-09T05:51:05;13.90;70.30
1351;DHT22;669;50.206;9.998;2022-09-09T05:53:35;14.50;69.70
1351;DHT22;669;50.206;9.998;2022-09-09T05:56:04;15.10;66.50
1351;DHT22;669;50.206;9.998;2022-09-09T05:58:34;15.50;62.60
1351;DHT22;669;50.206;9.998;2022-09-09T06:01:05;16.00;62.10
1351;DHT22;669;50.206;9.998;2022-09-09T06:03:34;16.30;61.80
1351;DHT22;669;50.206;9.998;2022-09-09T06:06:04;16.70;61.50
1351;DHT22;669;50.206;9.998;2022-09-09T06:08:33;17.00;59.70
1351;DHT22;669;50.206;9.998;2022-09-09T06:11:02;17.40;57.80
1351;DHT22;669;50.206;9.998;2022-09-09T06:13:31;17.80;55.20
1351;DHT22;669;50.206;9.998;2022-09-09T06:15:59;17.90;55.10
1351;DHT22;669;50.206;9.998;2022-09-09T06:18:28;18.00;54.80
1351;DHT22;669;50.206;9.998;2022-09-09T06:20:57;18.20;55.50
1351;DHT22;669;50.206;9.998;2022-09-09T06:23:27;18.30;54.20
1351;DHT22;669;50.206;9.998;2022-09-09T06:26:03;18.60;53.20
1351;DHT22;669;50.206;9.998;2022-09-09T06:28:32;18.90;55.90
1351;DHT22;669;50.206;9.998;2022-09-09T06:31:00;19.30;54.10
1351;DHT22;669;50.206;9.998;2022-09-09T06:33:33;19.60;55.00
1351;DHT22;669;50.206;9.998;2022-09-09T06:36:02;19.90;53.20
1351;DHT22;669;50.206;9.998;2022-09-09T06:38:31;20.20;52.10
1351;DHT22;669;50.206;9.998;2022-09-09T06:40:59;20.40;51.80
1351;DHT22;669;50.206;9.998;2022-09-09T06:43:28;20.40;53.30
1351;DHT22;669;50.206;9.998;2022-09-09T06:45:58;20.70;51.30
1351;DHT22;669;50.206;9.998;2022-09-09T06:48:26;20.90;50.60
1351;DHT22;669;50.206;9.998;2022-09-09T06:51:04;21.10;51.00
1351;DHT22;669;50.206;9.998;2022-09-09T06:53:34;21.30;49.80
1351;DHT22;669;50.206;9.998;2022-09-09T06:56:02;21.40;48.40
1351;DHT22;669;50.206;9.998;2022-09-09T06:58:44;21.50;48.30
1351;DHT22;669;50.206;9.998;2022-09-09T07:01:14;21.80;47.60
1351;DHT22;669;50.206;9.998;2022-09-09T07:03:46;22.00;47.40
1351;DHT22;669;50.206;9.998;2022-09-09T07:06:17;22.30;45.80
1351;DHT22;669;50.206;9.998;2022-09-09T07:08:49;22.00;46.80
1351;DHT22;669;50.206;9.998;2022-09-09T07:11:24;21.50;45.80
1351;DHT22;669;50.206;9.998;2022-09-09T07:13:54;21.00;47.00
1351;DHT22;669;50.206;9.998;2022-09-09T07:16:22;20.40;48.20
1351;DHT22;669;50.206;9.998;2022-09-09T07:18:52;20.00;49.80
1351;DHT22;669;50.206;9.998;2022-09-09T07:21:26;20.00;50.00
1351;DHT22;669;50.206;9.998;2022-09-09T07:23:55;20.10;49.90
1351;DHT22;669;50.206;9.998;2022-09-09T07:26:25;20.10;49.90
1351;DHT22;669;50.206;9.998;2022-09-09T07:28:53;20.40;50.10
1351;DHT22;669;50.206;9.998;2022-09-09T07:31:24;20.80;48.60
1351;DHT22;669;50.206;9.998;2022-09-09T07:33:53;21.20;48.10
1351;DHT22;669;50.206;9.998;2022-09-09T07:36:23;21.20;48.40
1351;DHT22;669;50.206;9.998;2022-09-09T07:39:01;21.40;48.40
1351;DHT22;669;50.206;9.998;2022-09-09T07:41:32;21.40;45.70
1351;DHT22;669;50.206;9.998;2022-09-09T07:44:04;21.30;45.30
1351;DHT22;669;50.206;9.998;2022-09-09T07:46:34;21.30;47.50
1351;DHT22;669;50.206;9.998;2022-09-09T07:49:03;21.40;48.10
1351;DHT22;669;50.206;9.998;2022-09-09T07:51:33;21.60;47.30
1351;DHT22;669;50.206;9.998;2022-09-09T07:54:04;22.00;46.20
1351;DHT22;669;50.206;9.998;2022-09-09T07:56:33;22.20;45.60
1351;DHT22;669;50.206;9.998;2022-09-09T07:59:02;22.30;46.00
1351;DHT22;669;50.206;9.998;2022-09-09T08:01:32;22.80;44.90
1351;DHT22;669;50.206;9.998;2022-09-09T08:04:04;22.60;43.80
1351;DHT22;669;50.206;9.998;2022-09-09T08:06:36;22.30;44.00
1351;DHT22;669;50.206;9.998;2022-09-09T08:09:08;21.80;44.10
1351;DHT22;669;50.206;9.998;2022-09-09T08:11:36;21.20;46.10
1351;DHT22;669;50.206;9.998;2022-09-09T08:14:05;20.80;46.90
1351;DHT22;669;50.206;9.998;2022-09-09T08:16:35;20.50;47.30
1351;DHT22;669;50.206;9.998;2022-09-09T08:19:04;20.20;47.80
1351;DHT22;669;50.206;9.998;2022-09-09T08:21:35;20.00;49.60
1351;DHT22;669;50.206;9.998;2022-09-09T08:24:05;19.80;49.60
1351;DHT22;669;50.206;9.998;2022-09-09T08:26:36;19.70;49.60
1351;DHT22;669;50.206;9.998;2022-09-09T08:29:06;19.60;49.40
1351;DHT22;669;50.206;9.998;2022-09-09T08:31:36;19.50;49.40
1351;DHT22;669;50.206;9.998;2022-09-09T08:34:06;19.50;50.00
1351;DHT22;669;50.206;9.998;2022-09-09T08:36:37;19.40;50.70
1351;DHT22;669;50.206;9.998;2022-09-09T08:39:06;19.50;49.70
1351;DHT22;669;50.206;9.998;2022-09-09T08:41:46;19.40;49.40
1351;DHT22;669;50.206;9.998;2022-09-09T08:44:26;19.30;50.00
1351;DHT22;669;50.206;9.998;2022-09-09T08:47:05;19.20;50.40
1351;DHT22;669;50.206;9.998;2022-09-09T08:49:49;19.10;51.40
1351;DHT22;669;50.206;9.998;2022-09-09T08:52:21;19.10;50.80
1351;DHT22;669;50.206;9.998;2022-09-09T08:54:50;19.10;50.50
1351;DHT22;669;50.206;9.998;2022-09-09T08:57:22;19.30;50.90
1351;DHT22;669;50.206;9.998;2022-09-09T08:59:54;19.40;50.70
1351;DHT22;669;50.206;9.998;2022-09-09T09:02:27;19.50;50.10
1351;DHT22;669;50.206;9.998;2022-09-09T09:05:08;20.20;50.00
1351;DHT22;669;50.206;9.998;2022-09-09T09:07:51;21.00;48.60
1351;DHT22;669;50.206;9.998;2022-09-09T09:10:30;21.80;46.50
1351;DHT22;669;50.206;9.998;2022-09-09T09:13:19;22.30;44.40
1351;DHT22;669;50.206;9.998;2022-09-09T09:15:54;22.90;44.00
1351;DHT22;669;50.206;9.998;2022-09-09T09:18:23;23.10;43.20
1351;DHT22;669;50.206;9.998;2022-09-09T09:20:57;23.00;42.80
1351;DHT22;669;50.206;9.998;2022-09-09T09:23:34;22.70;42.60
1351;DHT22;669;50.206;9.998;2022-09-09T09:26:07;22.40;43.00
1351;DHT22;669;50.206;9.998;2022-09-09T09:28:39;22.50;42.40
1351;DHT22;669;50.206;9.998;2022-09-09T09:31:10;22.30;40.40
1351;DHT22;669;50.206;9.998;2022-09-09T09:33:47;22.20;41.70
1351;DHT22;669;50.206;9.998;2022-09-09T09:36:16;21.90;41.90
1351;DHT22;669;50.206;9.998;2022-09-09T09:38:53;21.50;41.70
1351;DHT22;669;50.206;9.998;2022-09-09T09:41:42;21.30;42.30
1351;DHT22;669;50.206;9.998;2022-09-09T09:44:23;21.20;43.40
1351;DHT22;669;50.206;9.998;2022-09-09T09:46:52;21.10;44.20
1351;DHT22;669;50.206;9.998;2022-09-09T09:49:20;21.00;42.30
1351;DHT22;669;50.206;9.998;2022-09-09T09:51:49;20.90;43.00
1351;DHT22;669;50.206;9.998;2022-09-09T09:54:24;20.90;44.20
1351;DHT22;669;50.206;9.998;2022-09-09T09:56:55;20.80;44.40
1351;DHT22;669;50.206;9.998;2022-09-09T09:59:33;20.80;43.90
1351;DHT22;669;50.206;9.998;2022-09-09T10:02:13;20.70;44.10
1351;DHT22;669;50.206;9.998;2022-09-09T10:04:42;20.60;43.90
1351;DHT22;669;50.206;9.998;2022-09-09T10:07:12;20.50;45.40
1351;DHT22;669;50.206;9.998;2022-09-09T10:09:41;20.30;45.90
1351;DHT22;669;50.206;9.998;2022-09-09T10:12:17;20.30;46.10
1351;DHT22;669;50.206;9.998;2022-09-09T10:14:54;20.40;46.30
1351;DHT22;669;50.206;9.998;2022-09-09T10:17:32;20.50;45.40
1351;DHT22;669;50.206;9.998;2022-09-09T10:20:20;21.00;44.10
1351;DHT22;669;50.206;9.998;2022-09-09T10:22:51;21.20;44.00
1351;DHT22;669;50.206;9.998;2022-09-09T10:25:33;21.20;44.00
1351;DHT22;669;50.206;9.998;2022-09-09T10:28:20;21.50;42.70
1351;DHT22;669;50.206;9.998;2022-09-09T10:31:00;22.30;41.30
1351;DHT22;669;50.206;9.998;2022-09-09T10:33:35;22.40;40.80
1351;DHT22;669;50.206;9.998;2022-09-09T10:36:12;22.20;40.60
1351;DHT22;669;50.206;9.998;2022-09-09T10:38:42;22.00;42.00
1351;DHT22;669;50.206;9.998;2022-09-09T10:41:19;21.70;40.80
1351;DHT22;669;50.206;9.998;2022-09-09T10:44:03;21.50;41.60
1351;DHT22;669;50.206;9.998;2022-09-09T10:46:48;21.10;42.20
1351;DHT22;669;50.206;9.998;2022-09-09T10:49:28;20.80;43.30
1351;DHT22;669;50.206;9.998;2022-09-09T10:52:03;20.60;44.50
1351;DHT22;669;50.206;9.998;2022-09-09T10:54:46;20.40;48.30
1351;DHT22;669;50.206;9.998;2022-09-09T10:57:27;19.70;50.00
1351;DHT22;669;50.206;9.998;2022-09-09T11:00:03;19.10;55.00
1351;DHT22;669;50.206;9.998;2022-09-09T11:02:34;18.30;58.40
1351;DHT22;669;50.206;9.998;2022-09-09T11:05:05;17.80;58.80
1351;DHT22;669;50.206;9.998;2022-09-09T11:07:37;17.30;61.40
1351;DHT22;669;50.206;9.998;2022-09-09T11:10:16;17.20;66.10
1351;DHT22;669;50.206;9.998;2022-09-09T11:12:47;17.10;64.70
1351;DHT22;669;50.206;9.998;2022-09-09T11:15:21;17.30;69.10
1351;DHT22;669;50.206;9.998;2022-09-09T11:17:56;17.40;68.00
1351;DHT22;669;50.206;9.998;2022-09-09T11:20:26;17.50;71.80
1351;DHT22;669;50.206;9.998;2022-09-09T11:22:57;17.60;70.30
1351;DHT22;669;50.206;9.998;2022-09-09T11:25:32;17.70;69.80
1351;DHT22;669;50.206;9.998;2022-09-09T11:28:19;17.80;68.30
1351;DHT22;669;50.206;9.998;2022-09-09T11:31:02;18.00;66.20
1351;DHT22;669;50.206;9.998;2022-09-09T11:33:59;18.20;66.70
1351;DHT22;669;50.206;9.998;2022-09-09T11:37:02;18.60;67.20
1351;DHT22;669;50.206;9.998;2022-09-09T11:40:14;19.00;64.00
1351;DHT22;669;50.206;9.998;2022-09-09T11:42:44;19.60;65.20
1351;DHT22;669;50.206;9.998;2022-09-09T11:45:23;19.90;58.40
1351;DHT22;669;50.206;9.998;2022-09-09T11:47:53;20.20;57.60
1351;DHT22;669;50.206;9.998;2022-09-09T11:50:34;20.40;53.50
1351;DHT22;669;50.206;9.998;2022-09-09T11:53:21;20.50;54.60
1351;DHT22;669;50.206;9.998;2022-09-09T11:56:06;20.50;53.80
1351;DHT22;669;50.206;9.998;2022-09-09T11:58:42;20.70;54.40
1351;DHT22;669;50.206;9.998;2022-09-09T12:01:39;20.90;52.70
1351;DHT22;669;50.206;9.998;2022-09-09T12:04:16;21.30;52.20
1351;DHT22;669;50.206;9.998;2022-09-09T12:06:51;21.50;51.10
1351;DHT22;669;50.206;9.998;2022-09-09T12:09:25;21.70;50.60
1351;DHT22;669;50.206;9.998;2022-09-09T12:12:06;21.80;48.10
1351;DHT22;669;50.206;9.998;2022-09-09T12:14:36;21.70;45.30
1351;DHT22;669;50.206;9.998;2022-09-09T12:17:26;21.30;46.00
1351;DHT22;669;50.206;9.998;2022-09-09T12:20:06;20.70;46.80
1351;DHT22;669;50.206;9.998;2022-09-09T12:25:34;19.70;50.70
1351;DHT22;669;50.206;9.998;2022-09-09T12:28:09;19.40;51.30
1351;DHT22;669;50.206;9.998;2022-09-09T12:30:45;19.10;52.60
1351;DHT22;669;50.206;9.998;2022-09-09T12:33:18;19.00;53.70
1351;DHT22;669;50.206;9.998;2022-09-09T12:35:50;18.80;54.00
1351;DHT22;669;50.206;9.998;2022-09-09T12:38:27;18.70;53.30
1351;DHT22;669;50.206;9.998;2022-09-09T12:40:58;18.70;54.10
1351;DHT22;669;50.206;9.998;2022-09-09T12:43:27;18.60;54.10
1351;DHT22;669;50.206;9.998;2022-09-09T12:45:58;18.40;55.70
1351;DHT22;669;50.206;9.998;2022-09-09T12:48:31;18.10;55.60
1351;DHT22;669;50.206;9.998;2022-09-09T12:51:01;17.80;57.80
1351;DHT22;669;50.206;9.998;2022-09-09T12:53:34;17.60;60.90
1351;DHT22;669;50.206;9.998;2022-09-09T12:56:05;17.80;60.30
1351;DHT22;669;50.206;9.998;2022-09-09T12:58:36;18.30;59.50
1351;DHT22;669;50.206;9.998;2022-09-09T13:01:05;18.80;58.00
1351;DHT22;669;50.206;9.998;2022-09-09T13:03:42;19.40;58.10
1351;DHT22;669;50.206;9.998;2022-09-09T13:06:18;19.60;51.40
1351;DHT22;669;50.206;9.998;2022-09-09T13:08:57;19.50;51.60
1351;DHT22;669;50.206;9.998;2022-09-09T13:11:28;19.70;50.60
1351;DHT22;669;50.206;9.998;2022-09-09T13:13:58;20.10;49.40
1351;DHT22;669;50.206;9.998;2022-09-09T13:16:27;20.50;48.80
1351;DHT22;669;50.206;9.998;2022-09-09T13:19:00;20.90;47.10
1351;DHT22;669;50.206;9.998;2022-09-09T13:21:33;21.20;46.50
1351;DHT22;669;50.206;9.998;2022-09-09T13:24:05;21.40;45.10
1351;DHT22;669;50.206;9.998;2022-09-09T13:26:34;21.60;44.20
1351;DHT22;669;50.206;9.998;2022-09-09T13:29:16;21.60;45.20
1351;DHT22;669;50.206;9.998;2022-09-09T13:31:48;21.70;44.20
1351;DHT22;669;50.206;9.998;2022-09-09T13:34:27;21.80;42.40
1351;DHT22;669;50.206;9.998;2022-09-09T13:36:59;22.10;41.20
1351;DHT22;669;50.206;9.998;2022-09-09T13:39:30;22.30;40.50
1351;DHT22;669;50.206;9.998;2022-09-09T13:41:58;22.30;40.50
1351;DHT22;669;50.206;9.998;2022-09-09T13:44:27;22.00;39.40
1351;DHT22;669;50.206;9.998;2022-09-09T13:47:01;21.60;41.10
1351;DHT22;669;50.206;9.998;2022-09-09T13:49:36;21.20;39.40
1351;DHT22;669;50.206;9.998;2022-09-09T13:52:05;20.80;36.90
1351;DHT22;669;50.206;9.998;2022-09-09T13:54:35;20.30;37.40
1351;DHT22;669;50.206;9.998;2022-09-09T13:57:03;20.20;38.20
1351;DHT22;669;50.206;9.998;2022-09-09T13:59:32;20.00;38.20
1351;DHT22;669;50.206;9.998;2022-09-09T14:02:21;20.00;39.20
1351;DHT22;669;50.206;9.998;2022-09-09T14:04:49;20.10;40.30
1351;DHT22;669;50.206;9.998;2022-09-09T14:07:21;20.00;40.20
1351;DHT22;669;50.206;9.998;2022-09-09T14:09:51;19.90;40.10
1351;DHT22;669;50.206;9.998;2022-09-09T14:12:19;19.80;40.50
1351;DHT22;669;50.206;9.998;2022-09-09T14:14:47;19.60;41.10
1351;DHT22;669;50.206;9.998;2022-09-09T14:17:15;19.50;41.50
1351;DHT22;669;50.206;9.998;2022-09-09T14:19:42;19.40;42.20
1351;DHT22;669;50.206;9.998;2022-09-09T14:22:11;19.40;42.80
1351;DHT22;669;50.206;9.998;2022-09-09T14:24:39;19.30;43.50
1351;DHT22;669;50.206;9.998;2022-09-09T14:27:09;19.20;44.30
1351;DHT22;669;50.206;9.998;2022-09-09T14:29:37;19.20;46.50
1351;DHT22;669;50.206;9.998;2022-09-09T14:32:05;19.30;45.40
1351;DHT22;669;50.206;9.998;2022-09-09T14:34:38;19.40;45.70
1351;DHT22;669;50.206;9.998;2022-09-09T14:37:07;19.40;44.30
1351;DHT22;669;50.206;9.998;2022-09-09T14:39:35;19.50;43.20
1351;DHT22;669;50.206;9.998;2022-09-09T14:42:03;19.50;42.60
1351;DHT22;669;50.206;9.998;2022-09-09T14:44:33;19.40;42.20
1351;DHT22;669;50.206;9.998;2022-09-09T14:47:01;19.40;42.90
1351;DHT22;669;50.206;9.998;2022-09-09T14:49:29;19.30;43.10
1351;DHT22;669;50.206;9.998;2022-09-09T14:51:57;19.30;44.70
1351;DHT22;669;50.206;9.998;2022-09-09T14:54:25;19.20;44.40
1351;DHT22;669;50.206;9.998;2022-09-09T14:56:53;19.20;45.00
1351;DHT22;669;50.206;9.998;2022-09-09T14:59:21;19.20;44.70
1351;DHT22;669;50.206;9.998;2022-09-09T15:01:50;19.20;46.50
1351;DHT22;669;50.206;9.998;2022-09-09T15:04:18;19.30;46.00
1351;DHT22;669;50.206;9.998;2022-09-09T15:06:47;19.40;46.20
1351;DHT22;669;50.206;9.998;2022-09-09T15:09:16;19.40;44.90
1351;DHT22;669;50.206;9.998;2022-09-09T15:11:44;19.50;43.60
1351;DHT22;669;50.206;9.998;2022-09-09T15:14:12;19.50;44.20
1351;DHT22;669;50.206;9.998;2022-09-09T15:16:40;19.40;44.10
1351;DHT22;669;50.206;9.998;2022-09-09T15:19:10;19.40;42.90
1351;DHT22;669;50.206;9.998;2022-09-09T15:21:38;19.40;43.40
1351;DHT22;669;50.206;9.998;2022-09-09T15:24:06;19.30;43.30
1351;DHT22;669;50.206;9.998;2022-09-09T15:26:35;19.30;42.80
1351;DHT22;669;50.206;9.998;2022-09-09T15:29:05;19.20;41.90
1351;DHT22;669;50.206;9.998;2022-09-09T15:31:34;19.10;41.50
1351;DHT22;669;50.206;9.998;2022-09-09T15:34:03;19.10;41.70
1351;DHT22;669;50.206;9.998;2022-09-09T15:36:35;18.90;41.40
1351;DHT22;669;50.206;9.998;2022-09-09T15:39:05;18.80;41.40
1351;DHT22;669;50.206;9.998;2022-09-09T15:41:34;18.70;42.00
1351;DHT22;669;50.206;9.998;2022-09-09T15:44:02;18.70;41.70
1351;DHT22;669;50.206;9.998;2022-09-09T15:46:32;18.60;42.70
1351;DHT22;669;50.206;9.998;2022-09-09T15:49:05;18.60;42.60
1351;DHT22;669;50.206;9.998;2022-09-09T15:51:38;18.60;42.40
1351;DHT22;669;50.206;9.998;2022-09-09T15:54:10;18.70;42.30
1351;DHT22;669;50.206;9.998;2022-09-09T15:56:39;18.80;42.70
1351;DHT22;669;50.206;9.998;2022-09-09T15:59:08;18.80;42.60
1351;DHT22;669;50.206;9.998;2022-09-09T16:01:36;18.90;42.30
1351;DHT22;669;50.206;9.998;2022-09-09T16:04:06;19.00;42.00
1351;DHT22;669;50.206;9.998;2022-09-09T16:06:34;19.00;41.80
1351;DHT22;669;50.206;9.998;2022-09-09T16:09:06;19.20;41.80
1351;DHT22;669;50.206;9.998;2022-09-09T16:11:36;19.20;42.20
1351;DHT22;669;50.206;9.998;2022-09-09T16:14:04;19.10;42.60
1351;DHT22;669;50.206;9.998;2022-09-09T16:16:33;19.00;43.00
1351;DHT22;669;50.206;9.998;2022-09-09T16:19:04;19.00;42.80
1351;DHT22;669;50.206;9.998;2022-09-09T16:21:34;19.00;42.90
1351;DHT22;669;50.206;9.998;2022-09-09T16:24:04;18.90;43.40
1351;DHT22;669;50.206;9.998;2022-09-09T16:26:34;18.90;42.50
1351;DHT22;669;50.206;9.998;2022-09-09T16:29:03;18.80;43.50
1351;DHT22;669;50.206;9.998;2022-09-09T16:31:31;18.90;43.10
1351;DHT22;669;50.206;9.998;2022-09-09T16:33:59;18.80;43.20
1351;DHT22;669;50.206;9.998;2022-09-09T16:36:34;18.70;43.40
1351;DHT22;669;50.206;9.998;2022-09-09T16:39:06;18.70;43.60
1351;DHT22;669;50.206;9.998;2022-09-09T16:41:36;18.60;43.40
1351;DHT22;669;50.206;9.998;2022-09-09T16:44:06;18.60;43.80
1351;DHT22;669;50.206;9.998;2022-09-09T16:46:35;18.50;44.30
1351;DHT22;669;50.206;9.998;2022-09-09T16:49:06;18.40;44.40
1351;DHT22;669;50.206;9.998;2022-09-09T16:51:35;18.40;44.40
1351;DHT22;669;50.206;9.998;2022-09-09T16:54:07;18.40;44.30
1351;DHT22;669;50.206;9.998;2022-09-09T16:56:37;18.40;44.50